createdAt,value
2019-03-28T00:02:30.969Z,7.17
2019-03-28T00:07:36.087Z,7.17
2019-03-28T00:12:38.745Z,7.00
2019-03-28T00:17:41.328Z,7.53
2019-03-28T00:22:50.814Z,7.43
2019-03-28T00:27:53.521Z,8.33
2019-03-28T00:32:56.132Z,7.13
2019-03-28T00:37:58.779Z,7.53
2019-03-28T00:43:01.479Z,8.73
2019-03-28T00:48:05.355Z,8.20
2019-03-28T00:53:08.066Z,9.90
2019-03-28T00:58:12.133Z,7.93
2019-03-28T01:03:14.849Z,9.90
2019-03-28T01:08:17.602Z,9.60
2019-03-28T01:13:20.200Z,7.93
2019-03-28T01:18:22.819Z,7.87
2019-03-28T01:23:25.400Z,8.33
2019-03-28T01:28:28.011Z,8.90
2019-03-28T01:33:30.622Z,8.07
2019-03-28T01:38:33.252Z,9.03
2019-03-28T01:43:35.937Z,9.03
2019-03-28T01:48:38.549Z,8.47
2019-03-28T01:53:41.285Z,8.73
2019-03-28T01:58:43.897Z,7.70
2019-03-28T02:03:47.611Z,8.13
2019-03-28T02:08:50.254Z,8.90
2019-03-28T02:13:52.971Z,8.83
2019-03-28T02:18:55.568Z,9.93
2019-03-28T02:23:58.161Z,9.70
2019-03-28T02:29:00.762Z,9.57
2019-03-28T02:34:03.416Z,10.47
2019-03-28T02:39:06.132Z,9.93
2019-03-28T02:44:08.718Z,9.53
2019-03-28T02:49:11.442Z,10.43
2019-03-28T02:54:14.206Z,10.50
2019-03-28T02:59:16.820Z,10.83
2019-03-28T03:04:19.434Z,9.87
2019-03-28T03:09:22.145Z,11.50
2019-03-28T03:14:24.771Z,10.00
2019-03-28T03:19:27.403Z,9.70
2019-03-28T03:24:30.033Z,10.03
2019-03-28T03:29:32.660Z,10.03
2019-03-28T03:34:35.323Z,10.53
2019-03-28T03:39:37.913Z,11.00
2019-03-28T03:44:42.009Z,11.93
2019-03-28T03:49:45.012Z,13.93
2019-03-28T03:54:47.748Z,12.87
2019-03-28T03:59:50.442Z,11.83
2019-03-28T04:04:56.470Z,11.47
2019-03-28T04:09:57.648Z,12.10
2019-03-28T04:15:02.182Z,12.77
2019-03-28T04:20:06.776Z,10.83
2019-03-28T04:25:09.344Z,12.47
2019-03-28T04:30:12.260Z,15.32
2019-03-28T04:35:14.732Z,12.47
2019-03-28T04:40:17.287Z,11.30
2019-03-28T04:45:19.930Z,12.30
2019-03-28T04:50:22.491Z,13.63
2019-03-28T04:55:25.223Z,14.37
2019-03-28T05:00:27.846Z,12.57
2019-03-28T05:05:30.444Z,16.27
2019-03-28T05:10:34.230Z,14.00
2019-03-28T05:15:36.829Z,11.67
2019-03-28T05:20:42.647Z,13.63
2019-03-28T05:25:45.735Z,12.53
2019-03-28T05:30:48.362Z,15.03
2019-03-28T05:35:50.965Z,15.90
2019-03-28T05:40:53.612Z,13.93
2019-03-28T05:45:56.298Z,14.80
2019-03-28T05:50:58.944Z,14.40
2019-03-28T05:56:01.571Z,11.30
2019-03-28T06:01:04.213Z,11.57
2019-03-28T06:06:13.434Z,13.47
2019-03-28T06:11:16.099Z,13.70
2019-03-28T06:16:19.883Z,12.83
2019-03-28T06:21:22.497Z,11.30
2019-03-28T06:26:25.148Z,12.17
2019-03-28T06:31:27.721Z,11.27
2019-03-28T06:36:30.318Z,11.87
2019-03-28T06:41:32.908Z,10.93
2019-03-28T06:46:35.521Z,13.90
2019-03-28T06:51:38.148Z,13.50
2019-03-28T06:56:40.772Z,10.80
2019-03-28T07:01:43.392Z,11.17
2019-03-28T07:06:46.000Z,11.90
2019-03-28T07:11:48.674Z,11.20
2019-03-28T07:16:51.245Z,12.37
2019-03-28T07:21:53.894Z,13.20
2019-03-28T07:26:56.499Z,14.17
2019-03-28T07:31:59.132Z,10.97
2019-03-28T07:37:01.747Z,11.77
2019-03-28T07:42:04.511Z,12.13
2019-03-28T07:47:07.127Z,11.90
2019-03-28T07:52:09.812Z,13.20
2019-03-28T07:57:12.464Z,12.27
2019-03-28T08:02:15.076Z,12.47
2019-03-28T08:07:17.731Z,12.17
2019-03-28T08:12:23.318Z,11.30
2019-03-28T08:17:27.094Z,11.47
2019-03-28T08:22:29.975Z,12.53
2019-03-28T08:27:32.606Z,11.03
2019-03-28T08:32:35.667Z,10.13
2019-03-28T08:37:39.171Z,10.97
2019-03-28T08:42:41.753Z,11.30
2019-03-28T08:47:51.372Z,11.97
2019-03-28T08:52:54.000Z,12.30
2019-03-28T08:57:56.809Z,11.63
2019-03-28T09:02:59.364Z,11.67
2019-03-28T09:08:01.996Z,9.90
2019-03-28T09:13:05.919Z,10.27
2019-03-28T09:18:08.499Z,9.60
2019-03-28T09:23:11.255Z,9.80
2019-03-28T09:28:14.124Z,9.17
2019-03-28T09:33:17.319Z,9.67
2019-03-28T09:38:19.892Z,10.23
2019-03-28T09:43:24.541Z,10.13
2019-03-28T09:48:27.187Z,8.90
2019-03-28T09:53:29.848Z,8.87
2019-03-28T09:58:32.534Z,8.30
2019-03-28T10:03:35.125Z,8.03
2019-03-28T10:08:37.756Z,7.50
2019-03-28T10:13:40.359Z,7.80
2019-03-28T10:18:42.945Z,7.60
2019-03-28T10:23:47.396Z,7.97
2019-03-28T10:28:50.152Z,7.47
2019-03-28T10:33:52.822Z,7.90
2019-03-28T10:38:55.622Z,7.63
2019-03-28T10:43:58.283Z,8.50
2019-03-28T10:49:00.926Z,8.03
2019-03-28T10:54:03.551Z,8.63
2019-03-28T10:59:06.226Z,7.17
2019-03-28T11:04:08.944Z,8.23
2019-03-28T11:09:11.548Z,7.87
2019-03-28T11:14:14.239Z,9.00
2019-03-28T11:19:17.623Z,8.80
2019-03-28T11:24:21.557Z,7.77
2019-03-28T11:29:24.169Z,7.93
2019-03-28T11:34:26.757Z,8.10
2019-03-28T11:39:29.317Z,8.73
2019-03-28T11:44:33.803Z,9.10
2019-03-28T11:49:36.504Z,9.83
2019-03-28T11:54:41.270Z,9.43
2019-03-28T11:59:43.773Z,9.63
2019-03-28T12:04:46.403Z,9.63
2019-03-28T12:09:49.008Z,10.20
2019-03-28T12:14:51.636Z,9.40
2019-03-28T12:19:54.340Z,9.27
2019-03-28T12:24:57.000Z,9.73
2019-03-28T12:29:59.604Z,8.97
2019-03-28T12:35:02.306Z,10.77
2019-03-28T12:40:06.485Z,8.83
2019-03-28T12:45:10.307Z,9.57
2019-03-28T12:50:14.601Z,9.53
2019-03-28T12:55:17.193Z,9.20
2019-03-28T13:00:32.782Z,9.07
2019-03-28T13:05:35.439Z,9.07
2019-03-28T13:10:38.048Z,8.60
2019-03-28T13:15:40.703Z,8.07
2019-03-28T13:20:43.359Z,7.47
2019-03-28T13:25:45.943Z,6.03
2019-03-28T13:30:48.586Z,5.87
2019-03-28T13:35:51.216Z,4.80
2019-03-28T13:40:54.916Z,5.50
2019-03-28T13:45:58.807Z,4.97
2019-03-28T13:51:01.451Z,5.83
2019-03-28T13:56:04.070Z,5.83
2019-03-28T14:01:06.765Z,6.00
2019-03-28T14:06:11.464Z,6.57
2019-03-28T14:11:15.886Z,7.20
2019-03-28T14:16:18.476Z,7.37
2019-03-28T14:21:21.124Z,6.97
2019-03-28T14:26:24.629Z,6.77
2019-03-28T14:31:27.450Z,8.53
2019-03-28T14:36:30.066Z,7.93
2019-03-28T14:41:32.733Z,7.27
2019-03-28T14:46:35.450Z,7.60
2019-03-28T14:51:38.108Z,6.90
2019-03-28T14:56:41.719Z,7.37
2019-03-28T15:01:44.414Z,6.10
2019-03-28T15:06:47.058Z,6.13
2019-03-28T15:11:49.792Z,6.77
2019-03-28T15:16:52.484Z,6.93
2019-03-28T15:21:55.141Z,6.83
2019-03-28T15:26:58.034Z,6.87
2019-03-28T15:32:00.710Z,7.80
2019-03-28T15:37:03.508Z,8.13
2019-03-28T15:42:06.188Z,7.90
2019-03-28T15:47:08.867Z,8.07
2019-03-28T15:52:11.546Z,7.67
2019-03-28T15:57:15.368Z,9.37
2019-03-28T16:02:20.367Z,8.03
2019-03-28T16:07:23.046Z,8.17
2019-03-28T16:12:29.195Z,9.20
2019-03-28T16:17:31.781Z,7.53
2019-03-28T16:22:34.427Z,7.83
2019-03-28T16:27:37.083Z,7.57
2019-03-28T16:32:39.786Z,8.67
2019-03-28T16:37:42.540Z,8.43
2019-03-28T16:42:45.179Z,8.77
2019-03-28T16:47:47.791Z,8.33
2019-03-28T16:52:50.449Z,9.83
2019-03-28T16:57:53.856Z,8.30
2019-03-28T17:02:57.774Z,8.80
2019-03-28T17:08:03.312Z,8.27
2019-03-28T17:13:06.094Z,9.10
2019-03-28T17:18:10.915Z,9.30
2019-03-28T17:23:13.656Z,7.63
2019-03-28T17:28:16.294Z,8.10
2019-03-28T17:33:18.949Z,8.37
2019-03-28T17:38:23.287Z,8.80
2019-03-28T17:43:28.614Z,8.40
2019-03-28T17:48:32.061Z,9.80
2019-03-28T17:53:35.420Z,9.67
2019-03-28T17:58:38.840Z,9.30
2019-03-28T18:03:42.398Z,10.50
2019-03-28T18:08:46.049Z,10.30
2019-03-28T18:13:49.493Z,7.63
2019-03-28T18:18:52.594Z,8.47
2019-03-28T18:23:56.059Z,8.90
2019-03-28T18:28:59.378Z,6.83
2019-03-28T18:34:02.835Z,7.37
2019-03-28T18:39:07.063Z,7.50
2019-03-28T18:44:10.732Z,7.33
2019-03-28T18:49:15.804Z,7.00
2019-03-28T18:54:21.309Z,7.57
2019-03-28T18:59:24.307Z,7.60
2019-03-28T19:04:30.603Z,7.90
2019-03-28T19:09:35.002Z,7.47
2019-03-28T19:14:37.631Z,10.73
2019-03-28T19:19:40.202Z,8.17
2019-03-28T19:24:42.978Z,7.87
2019-03-28T19:29:48.392Z,8.50
2019-03-28T19:34:52.380Z,7.90
2019-03-28T19:39:57.030Z,9.13
2019-03-28T19:44:59.728Z,8.63
2019-03-28T19:50:02.500Z,9.60
2019-03-28T19:55:06.482Z,11.80
2019-03-28T20:00:10.663Z,10.60
2019-03-28T20:05:13.616Z,10.53
2019-03-28T20:10:17.731Z,12.60
2019-03-28T20:15:20.849Z,11.00
2019-03-28T20:20:23.632Z,10.10
2019-03-28T20:25:26.297Z,9.40
2019-03-28T20:30:28.807Z,10.97
2019-03-28T20:35:32.589Z,10.53
2019-03-28T20:40:35.232Z,9.87
2019-03-28T20:45:37.882Z,11.00
2019-03-28T20:50:40.593Z,12.93
2019-03-28T20:55:43.330Z,14.80
2019-03-28T21:00:47.113Z,13.90
2019-03-28T21:05:49.849Z,16.80
2019-03-28T21:10:52.618Z,16.30
2019-03-28T21:15:55.220Z,14.63
2019-03-28T21:20:59.735Z,15.97
2019-03-28T21:26:02.363Z,16.97
2019-03-28T21:31:05.006Z,15.53
2019-03-28T21:36:07.492Z,15.23
2019-03-28T21:41:10.175Z,14.73
2019-03-28T21:46:12.794Z,13.83
2019-03-28T21:51:15.430Z,15.70
2019-03-28T21:56:18.053Z,17.23
2019-03-28T22:01:20.631Z,15.90
2019-03-28T22:06:23.411Z,17.13
2019-03-28T22:11:26.221Z,18.67
2019-03-28T22:16:28.782Z,18.00
2019-03-28T22:21:31.408Z,15.67
2019-03-28T22:26:34.045Z,14.63
2019-03-28T22:31:36.626Z,17.13
2019-03-28T22:36:39.311Z,18.20
2019-03-28T22:41:41.838Z,18.23
2019-03-28T22:46:44.509Z,16.60
2019-03-28T22:51:47.189Z,16.73
2019-03-28T22:56:50.025Z,16.87
2019-03-28T23:01:52.913Z,15.73
2019-03-28T23:06:55.516Z,15.63
2019-03-28T23:12:00.469Z,17.33
2019-03-28T23:17:03.164Z,18.33
2019-03-28T23:22:05.758Z,18.07
2019-03-28T23:27:08.468Z,17.43
2019-03-28T23:32:11.083Z,18.70
2019-03-28T23:37:24.177Z,18.83
2019-03-28T23:42:19.841Z,18.23
2019-03-28T23:47:22.436Z,18.30
2019-03-28T23:52:25.083Z,18.60
2019-03-28T23:57:28.798Z,18.07
